sensor_id;sensor_type;location;lat;lon;timestamp;pressure;altitude;pressure_sealevel;temperature;humidity
74334;BME280;62753;40.394;-80.022;2023-12-28T00:01:18;96636.77;;;16.63;43.71
74334;BME280;62753;40.394;-80.022;2023-12-28T00:03:41;96637.77;;;16.44;44.67
74334;BME280;62753;40.394;-80.022;2023-12-28T00:06:09;96640.62;;;15.71;46.01
74334;BME280;62753;40.394;-80.022;2023-12-28T00:08:32;96639.20;;;17.29;42.94
74334;BME280;62753;40.394;-80.022;2023-12-28T00:10:57;96637.38;;;17.44;44.07
74334;BME280;62753;40.394;-80.022;2023-12-28T00:13:22;96636.24;;;17.90;42.41
74334;BME280;62753;40.394;-80.022;2023-12-28T00:15:49;96638.55;;;16.40;44.33
74334;BME280;62753;40.394;-80.022;2023-12-28T00:18:13;96638.19;;;16.82;44.28
74334;BME280;62753;40.394;-80.022;2023-12-28T00:20:38;96636.35;;;16.99;43.68
74334;BME280;62753;40.394;-80.022;2023-12-28T00:23:05;96633.32;;;15.79;46.15
74334;BME280;62753;40.394;-80.022;2023-12-28T00:25:29;96630.49;;;16.53;44.65
74334;BME280;62753;40.394;-80.022;2023-12-28T00:27:55;96625.41;;;16.92;44.32
74334;BME280;62753;40.394;-80.022;2023-12-28T00:30:19;96622.09;;;17.57;42.13
74334;BME280;62753;40.394;-80.022;2023-12-28T00:32:46;96623.88;;;17.78;41.67
74334;BME280;62753;40.394;-80.022;2023-12-28T00:35:10;96621.02;;;17.04;42.71
74334;BME280;62753;40.394;-80.022;2023-12-28T00:37:35;96615.20;;;17.97;40.86
74334;BME280;62753;40.394;-80.022;2023-12-28T00:40:00;96616.07;;;17.46;41.82
74334;BME280;62753;40.394;-80.022;2023-12-28T00:42:27;96614.68;;;16.44;43.82
74334;BME280;62753;40.394;-80.022;2023-12-28T00:44:53;96609.30;;;15.87;44.61
74334;BME280;62753;40.394;-80.022;2023-12-28T00:47:16;96609.64;;;17.49;43.35
74334;BME280;62753;40.394;-80.022;2023-12-28T00:49:44;96610.63;;;16.92;43.40
74334;BME280;62753;40.394;-80.022;2023-12-28T00:52:07;96613.10;;;17.36;42.80
74334;BME280;62753;40.394;-80.022;2023-12-28T00:54:32;96611.19;;;18.28;40.92
74334;BME280;62753;40.394;-80.022;2023-12-28T00:57:00;96604.67;;;17.77;40.99
74334;BME280;62753;40.394;-80.022;2023-12-28T00:59:26;96604.40;;;17.92;40.72
74334;BME280;62753;40.394;-80.022;2023-12-28T01:01:48;96607.25;;;16.92;42.81
74334;BME280;62753;40.394;-80.022;2023-12-28T01:04:13;96609.98;;;17.84;41.34
74334;BME280;62753;40.394;-80.022;2023-12-28T01:06:40;96609.38;;;17.07;42.69
74334;BME280;62753;40.394;-80.022;2023-12-28T01:09:06;96609.42;;;17.50;42.80
74334;BME280;62753;40.394;-80.022;2023-12-28T01:11:29;96604.96;;;17.02;43.69
74334;BME280;62753;40.394;-80.022;2023-12-28T01:13:55;96602.16;;;18.26;41.35
74334;BME280;62753;40.394;-80.022;2023-12-28T01:16:20;96599.41;;;18.07;41.28
74334;BME280;62753;40.394;-80.022;2023-12-28T01:18:45;96602.83;;;18.17;41.00
74334;BME280;62753;40.394;-80.022;2023-12-28T01:21:10;96608.12;;;17.61;42.03
74334;BME280;62753;40.394;-80.022;2023-12-28T01:23:36;96609.56;;;15.74;44.96
74334;BME280;62753;40.394;-80.022;2023-12-28T01:26:01;96607.03;;;15.24;46.37
74334;BME280;62753;40.394;-80.022;2023-12-28T01:28:27;96605.07;;;15.65;45.14
74334;BME280;62753;40.394;-80.022;2023-12-28T01:30:53;96599.41;;;15.38;45.47
74334;BME280;62753;40.394;-80.022;2023-12-28T01:33:17;96596.65;;;17.28;42.35
74334;BME280;62753;40.394;-80.022;2023-12-28T01:35:42;96588.39;;;16.80;43.23
74334;BME280;62753;40.394;-80.022;2023-12-28T01:38:09;96587.43;;;17.94;41.35
74334;BME280;62753;40.394;-80.022;2023-12-28T01:40:36;96587.40;;;18.27;41.58
74334;BME280;62753;40.394;-80.022;2023-12-28T01:43:00;96586.66;;;18.90;39.98
74334;BME280;62753;40.394;-80.022;2023-12-28T01:45:24;96581.60;;;18.25;40.64
74334;BME280;62753;40.394;-80.022;2023-12-28T01:47:52;96573.29;;;18.30;41.70
74334;BME280;62753;40.394;-80.022;2023-12-28T01:50:14;96572.68;;;17.66;42.40
74334;BME280;62753;40.394;-80.022;2023-12-28T01:52:39;96576.31;;;19.11;40.52
74334;BME280;62753;40.394;-80.022;2023-12-28T01:55:08;96581.56;;;17.03;42.60
74334;BME280;62753;40.394;-80.022;2023-12-28T01:57:31;96580.79;;;16.06;46.11
74334;BME280;62753;40.394;-80.022;2023-12-28T01:59:57;96576.76;;;17.65;42.89
74334;BME280;62753;40.394;-80.022;2023-12-28T02:02:22;96575.86;;;17.53;43.60
74334;BME280;62753;40.394;-80.022;2023-12-28T02:04:49;96580.77;;;18.26;42.04
74334;BME280;62753;40.394;-80.022;2023-12-28T02:07:14;96586.23;;;17.61;42.74
74334;BME280;62753;40.394;-80.022;2023-12-28T02:09:40;96584.26;;;17.45;43.36
74334;BME280;62753;40.394;-80.022;2023-12-28T02:12:06;96584.15;;;17.60;42.51
74334;BME280;62753;40.394;-80.022;2023-12-28T02:14:30;96580.15;;;17.56;41.96
74334;BME280;62753;40.394;-80.022;2023-12-28T02:17:00;96582.60;;;18.53;40.85
74334;BME280;62753;40.394;-80.022;2023-12-28T02:19:31;96581.02;;;18.89;40.02
74334;BME280;62753;40.394;-80.022;2023-12-28T02:21:47;96575.18;;;17.96;41.14
74334;BME280;62753;40.394;-80.022;2023-12-28T02:24:10;96574.01;;;17.29;42.49
74334;BME280;62753;40.394;-80.022;2023-12-28T02:26:39;96572.86;;;17.32;42.48
74334;BME280;62753;40.394;-80.022;2023-12-28T02:29:01;96569.91;;;17.08;42.25
74334;BME280;62753;40.394;-80.022;2023-12-28T02:31:32;96563.73;;;16.69;42.96
74334;BME280;62753;40.394;-80.022;2023-12-28T02:34:04;96560.77;;;17.74;42.43
74334;BME280;62753;40.394;-80.022;2023-12-28T02:36:22;96566.04;;;19.51;38.69
74334;BME280;62753;40.394;-80.022;2023-12-28T02:38:46;96563.83;;;18.86;39.52
74334;BME280;62753;40.394;-80.022;2023-12-28T02:41:10;96558.35;;;18.01;40.66
74334;BME280;62753;40.394;-80.022;2023-12-28T02:43:35;96553.91;;;17.48;41.79
74334;BME280;62753;40.394;-80.022;2023-12-28T02:46:01;96552.31;;;17.23;42.23
74334;BME280;62753;40.394;-80.022;2023-12-28T02:48:29;96554.85;;;17.00;42.66
74334;BME280;62753;40.394;-80.022;2023-12-28T02:50:53;96558.29;;;18.13;41.15
74334;BME280;62753;40.394;-80.022;2023-12-28T02:53:18;96558.50;;;16.25;45.30
74334;BME280;62753;40.394;-80.022;2023-12-28T02:55:43;96556.36;;;15.72;45.21
74334;BME280;62753;40.394;-80.022;2023-12-28T02:58:09;96551.23;;;17.55;42.51
74334;BME280;62753;40.394;-80.022;2023-12-28T03:00:33;96551.29;;;19.00;39.39
74334;BME280;62753;40.394;-80.022;2023-12-28T03:03:00;96553.10;;;18.43;39.85
74334;BME280;62753;40.394;-80.022;2023-12-28T03:05:24;96549.84;;;18.78;39.14
74334;BME280;62753;40.394;-80.022;2023-12-28T03:07:51;96549.24;;;17.78;40.42
74334;BME280;62753;40.394;-80.022;2023-12-28T03:10:15;96556.02;;;18.33;40.09
74334;BME280;62753;40.394;-80.022;2023-12-28T03:12:42;96560.76;;;17.59;41.11
74334;BME280;62753;40.394;-80.022;2023-12-28T03:15:08;96563.48;;;16.15;43.52
74334;BME280;62753;40.394;-80.022;2023-12-28T03:17:32;96561.34;;;17.95;40.61
74334;BME280;62753;40.394;-80.022;2023-12-28T03:19:57;96559.19;;;15.34;44.79
74334;BME280;62753;40.394;-80.022;2023-12-28T03:22:22;96558.86;;;16.72;43.21
74334;BME280;62753;40.394;-80.022;2023-12-28T03:24:48;96559.89;;;15.41;44.74
74334;BME280;62753;40.394;-80.022;2023-12-28T03:27:14;96556.95;;;16.37;44.16
74334;BME280;62753;40.394;-80.022;2023-12-28T03:29:38;96555.59;;;16.28;43.75
74334;BME280;62753;40.394;-80.022;2023-12-28T03:32:04;96557.99;;;16.72;43.14
74334;BME280;62753;40.394;-80.022;2023-12-28T03:34:29;96555.72;;;15.72;44.81
74334;BME280;62753;40.394;-80.022;2023-12-28T03:36:54;96561.24;;;16.87;43.17
74334;BME280;62753;40.394;-80.022;2023-12-28T03:39:22;96556.32;;;16.44;44.08
74334;BME280;62753;40.394;-80.022;2023-12-28T03:41:48;96550.95;;;16.22;44.64
74334;BME280;62753;40.394;-80.022;2023-12-28T03:44:11;96544.23;;;17.14;42.77
74334;BME280;62753;40.394;-80.022;2023-12-28T03:46:36;96534.92;;;16.38;43.49
74334;BME280;62753;40.394;-80.022;2023-12-28T03:49:01;96532.28;;;16.77;43.45
74334;BME280;62753;40.394;-80.022;2023-12-28T03:51:26;96526.36;;;17.85;41.05
74334;BME280;62753;40.394;-80.022;2023-12-28T03:53:54;96525.69;;;18.41;40.17
74334;BME280;62753;40.394;-80.022;2023-12-28T03:56:21;96520.52;;;18.21;40.45
74334;BME280;62753;40.394;-80.022;2023-12-28T03:58:42;96518.46;;;17.92;41.53
74334;BME280;62753;40.394;-80.022;2023-12-28T04:01:07;96510.70;;;17.98;41.22
74334;BME280;62753;40.394;-80.022;2023-12-28T04:03:33;96511.81;;;18.77;39.57
74334;BME280;62753;40.394;-80.022;2023-12-28T04:05:59;96505.51;;;17.56;41.21
74334;BME280;62753;40.394;-80.022;2023-12-28T04:08:25;96504.98;;;17.24;41.99
74334;BME280;62753;40.394;-80.022;2023-12-28T04:10:50;96501.71;;;18.21;40.22
74334;BME280;62753;40.394;-80.022;2023-12-28T04:13:17;96499.49;;;19.20;38.80
74334;BME280;62753;40.394;-80.022;2023-12-28T04:15:43;96492.92;;;18.45;39.81
74334;BME280;62753;40.394;-80.022;2023-12-28T04:18:05;96499.81;;;18.87;39.07
74334;BME280;62753;40.394;-80.022;2023-12-28T04:20:31;96500.99;;;18.48;40.32
74334;BME280;62753;40.394;-80.022;2023-12-28T04:22:56;96501.90;;;17.72;41.60
74334;BME280;62753;40.394;-80.022;2023-12-28T04:25:21;96497.97;;;17.46;41.84
74334;BME280;62753;40.394;-80.022;2023-12-28T04:27:47;96500.58;;;16.86;42.79
74334;BME280;62753;40.394;-80.022;2023-12-28T04:30:14;96502.35;;;17.37;42.01
74334;BME280;62753;40.394;-80.022;2023-12-28T04:32:38;96499.81;;;18.04;41.26
74334;BME280;62753;40.394;-80.022;2023-12-28T04:35:03;96505.57;;;18.87;40.24
74334;BME280;62753;40.394;-80.022;2023-12-28T04:37:27;96503.66;;;18.27;41.03
74334;BME280;62753;40.394;-80.022;2023-12-28T04:39:52;96500.13;;;18.15;41.04
74334;BME280;62753;40.394;-80.022;2023-12-28T04:42:18;96494.56;;;18.08;41.69
74334;BME280;62753;40.394;-80.022;2023-12-28T04:44:43;96488.83;;;18.32;40.99
74334;BME280;62753;40.394;-80.022;2023-12-28T04:47:10;96484.20;;;18.18;41.19
74334;BME280;62753;40.394;-80.022;2023-12-28T04:49:34;96484.83;;;17.86;41.86
74334;BME280;62753;40.394;-80.022;2023-12-28T04:52:00;96486.89;;;16.95;43.85
74334;BME280;62753;40.394;-80.022;2023-12-28T04:54:26;96485.79;;;16.12;44.70
74334;BME280;62753;40.394;-80.022;2023-12-28T04:56:51;96489.87;;;17.63;42.02
74334;BME280;62753;40.394;-80.022;2023-12-28T04:59:17;96487.68;;;17.67;41.74
74334;BME280;62753;40.394;-80.022;2023-12-28T05:01:44;96483.02;;;17.44;41.44
74334;BME280;62753;40.394;-80.022;2023-12-28T05:04:06;96481.40;;;17.90;41.04
74334;BME280;62753;40.394;-80.022;2023-12-28T05:06:31;96480.89;;;18.21;40.12
74334;BME280;62753;40.394;-80.022;2023-12-28T05:08:56;96482.76;;;18.65;39.62
74334;BME280;62753;40.394;-80.022;2023-12-28T05:11:23;96478.02;;;17.08;41.79
74334;BME280;62753;40.394;-80.022;2023-12-28T05:13:47;96477.12;;;18.77;39.93
74334;BME280;62753;40.394;-80.022;2023-12-28T05:16:12;96477.05;;;18.75;39.38
74334;BME280;62753;40.394;-80.022;2023-12-28T05:18:37;96471.98;;;17.39;41.52
74334;BME280;62753;40.394;-80.022;2023-12-28T05:21:03;96472.62;;;18.23;40.84
74334;BME280;62753;40.394;-80.022;2023-12-28T05:23:28;96477.15;;;18.83;39.12
74334;BME280;62753;40.394;-80.022;2023-12-28T05:25:55;96474.23;;;19.11;38.75
74334;BME280;62753;40.394;-80.022;2023-12-28T05:28:20;96474.68;;;18.41;39.86
74334;BME280;62753;40.394;-80.022;2023-12-28T05:30:44;96465.66;;;19.52;38.57
74334;BME280;62753;40.394;-80.022;2023-12-28T05:33:09;96455.48;;;18.59;40.02
74334;BME280;62753;40.394;-80.022;2023-12-28T05:35:35;96453.44;;;18.65;39.70
74334;BME280;62753;40.394;-80.022;2023-12-28T05:38:00;96452.48;;;18.87;39.50
74334;BME280;62753;40.394;-80.022;2023-12-28T05:40:25;96444.69;;;18.22;40.06
74334;BME280;62753;40.394;-80.022;2023-12-28T05:42:52;96437.63;;;18.58;40.00
74334;BME280;62753;40.394;-80.022;2023-12-28T05:45:16;96438.07;;;18.81;39.83
74334;BME280;62753;40.394;-80.022;2023-12-28T05:47:42;96430.15;;;17.34;41.80
74334;BME280;62753;40.394;-80.022;2023-12-28T05:50:07;96436.65;;;18.36;39.94
74334;BME280;62753;40.394;-80.022;2023-12-28T05:52:39;96428.87;;;15.51;44.83
74334;BME280;62753;40.394;-80.022;2023-12-28T05:54:57;96430.24;;;17.46;43.05
74334;BME280;62753;40.394;-80.022;2023-12-28T05:57:22;96429.20;;;17.74;41.80
74334;BME280;62753;40.394;-80.022;2023-12-28T05:59:49;96434.10;;;18.68;40.32
74334;BME280;62753;40.394;-80.022;2023-12-28T06:02:13;96430.34;;;17.80;41.48
74334;BME280;62753;40.394;-80.022;2023-12-28T06:04:41;96431.41;;;17.28;41.66
74334;BME280;62753;40.394;-80.022;2023-12-28T06:07:04;96432.39;;;18.04;41.83
74334;BME280;62753;40.394;-80.022;2023-12-28T06:09:28;96431.88;;;16.23;44.54
74334;BME280;62753;40.394;-80.022;2023-12-28T06:11:55;96429.28;;;15.81;44.75
74334;BME280;62753;40.394;-80.022;2023-12-28T06:14:19;96431.09;;;15.65;45.30
74334;BME280;62753;40.394;-80.022;2023-12-28T06:16:45;96426.27;;;18.29;40.81
74334;BME280;62753;40.394;-80.022;2023-12-28T06:19:12;96416.73;;;17.45;41.06
74334;BME280;62753;40.394;-80.022;2023-12-28T06:21:38;96413.59;;;17.86;40.50
74334;BME280;62753;40.394;-80.022;2023-12-28T06:24:01;96416.91;;;17.70;41.01
74334;BME280;62753;40.394;-80.022;2023-12-28T06:26:28;96419.11;;;17.99;40.91
74334;BME280;62753;40.394;-80.022;2023-12-28T06:28:52;96417.46;;;17.99;40.84
74334;BME280;62753;40.394;-80.022;2023-12-28T06:31:19;96419.55;;;16.97;42.52
74334;BME280;62753;40.394;-80.022;2023-12-28T06:33:44;96418.74;;;17.77;41.68
74334;BME280;62753;40.394;-80.022;2023-12-28T06:36:10;96418.74;;;17.98;40.99
74334;BME280;62753;40.394;-80.022;2023-12-28T06:38:33;96418.47;;;17.86;40.93
74334;BME280;62753;40.394;-80.022;2023-12-28T06:41:01;96416.14;;;17.98;40.98
74334;BME280;62753;40.394;-80.022;2023-12-28T06:43:25;96418.82;;;18.48;39.83
74334;BME280;62753;40.394;-80.022;2023-12-28T06:45:51;96418.22;;;18.05;40.44
74334;BME280;62753;40.394;-80.022;2023-12-28T06:48:15;96416.78;;;16.51;42.98
74334;BME280;62753;40.394;-80.022;2023-12-28T06:50:43;96423.73;;;18.76;40.04
74334;BME280;62753;40.394;-80.022;2023-12-28T06:53:06;96420.97;;;18.45;39.68
74334;BME280;62753;40.394;-80.022;2023-12-28T06:55:32;96415.93;;;17.27;41.92
74334;BME280;62753;40.394;-80.022;2023-12-28T06:57:58;96417.03;;;16.55;43.54
74334;BME280;62753;40.394;-80.022;2023-12-28T07:00:24;96425.36;;;18.55;39.68
74334;BME280;62753;40.394;-80.022;2023-12-28T07:02:50;96419.58;;;17.91;40.44
74334;BME280;62753;40.394;-80.022;2023-12-28T07:05:15;96422.03;;;17.54;40.96
74334;BME280;62753;40.394;-80.022;2023-12-28T07:07:42;96421.28;;;15.46;44.80
74334;BME280;62753;40.394;-80.022;2023-12-28T07:10:06;96420.65;;;16.63;42.59
74334;BME280;62753;40.394;-80.022;2023-12-28T07:12:31;96423.12;;;17.24;42.69
74334;BME280;62753;40.394;-80.022;2023-12-28T07:14:55;96422.92;;;16.74;42.60
74334;BME280;62753;40.394;-80.022;2023-12-28T07:17:20;96422.28;;;17.35;41.79
74334;BME280;62753;40.394;-80.022;2023-12-28T07:19:45;96422.50;;;16.90;42.01
74334;BME280;62753;40.394;-80.022;2023-12-28T07:22:10;96420.67;;;17.09;41.34
74334;BME280;62753;40.394;-80.022;2023-12-28T07:24:36;96421.68;;;16.98;41.90
74334;BME280;62753;40.394;-80.022;2023-12-28T07:27:03;96424.84;;;16.50;42.95
74334;BME280;62753;40.394;-80.022;2023-12-28T07:29:28;96424.82;;;16.58;43.59
74334;BME280;62753;40.394;-80.022;2023-12-28T07:31:53;96428.03;;;16.79;42.75
74334;BME280;62753;40.394;-80.022;2023-12-28T07:34:17;96426.61;;;16.26;44.30
74334;BME280;62753;40.394;-80.022;2023-12-28T07:36:43;96429.58;;;15.61;45.09
74334;BME280;62753;40.394;-80.022;2023-12-28T07:39:08;96435.30;;;16.15;44.49
74334;BME280;62753;40.394;-80.022;2023-12-28T07:41:33;96433.10;;;16.14;44.28
74334;BME280;62753;40.394;-80.022;2023-12-28T07:43:59;96431.96;;;16.48;43.50
74334;BME280;62753;40.394;-80.022;2023-12-28T07:46:24;96431.49;;;16.23;44.31
74334;BME280;62753;40.394;-80.022;2023-12-28T07:48:49;96435.35;;;15.13;46.13
74334;BME280;62753;40.394;-80.022;2023-12-28T07:51:16;96440.94;;;15.34;45.64
74334;BME280;62753;40.394;-80.022;2023-12-28T07:53:40;96440.96;;;15.47;45.08
74334;BME280;62753;40.394;-80.022;2023-12-28T07:56:06;96445.73;;;15.82;44.69
74334;BME280;62753;40.394;-80.022;2023-12-28T07:58:35;96450.67;;;15.31;46.28
74334;BME280;62753;40.394;-80.022;2023-12-28T08:00:59;96452.40;;;14.87;46.22
74334;BME280;62753;40.394;-80.022;2023-12-28T08:03:24;96444.06;;;15.55;45.10
74334;BME280;62753;40.394;-80.022;2023-12-28T08:05:47;96446.56;;;14.77;46.89
74334;BME280;62753;40.394;-80.022;2023-12-28T08:08:12;96440.55;;;15.59;44.01
74334;BME280;62753;40.394;-80.022;2023-12-28T08:10:39;96439.74;;;15.99;43.70
74334;BME280;62753;40.394;-80.022;2023-12-28T08:13:03;96442.23;;;15.78;44.24
74334;BME280;62753;40.394;-80.022;2023-12-28T08:15:30;96445.07;;;15.40;45.50
74334;BME280;62753;40.394;-80.022;2023-12-28T08:17:54;96446.89;;;15.30;46.06
74334;BME280;62753;40.394;-80.022;2023-12-28T08:20:19;96445.46;;;15.54;44.67
74334;BME280;62753;40.394;-80.022;2023-12-28T08:22:44;96448.19;;;15.58;44.15
74334;BME280;62753;40.394;-80.022;2023-12-28T08:25:14;96446.83;;;15.39;45.01
74334;BME280;62753;40.394;-80.022;2023-12-28T08:27:38;96444.58;;;15.89;43.86
74334;BME280;62753;40.394;-80.022;2023-12-28T08:30:04;96445.17;;;15.58;44.88
74334;BME280;62753;40.394;-80.022;2023-12-28T08:32:27;96442.67;;;15.97;44.38
74334;BME280;62753;40.394;-80.022;2023-12-28T08:34:51;96443.63;;;15.45;44.53
74334;BME280;62753;40.394;-80.022;2023-12-28T08:37:16;96442.49;;;15.92;44.36
74334;BME280;62753;40.394;-80.022;2023-12-28T08:39:42;96442.32;;;15.52;44.39
74334;BME280;62753;40.394;-80.022;2023-12-28T08:42:07;96440.81;;;15.33;45.31
74334;BME280;62753;40.394;-80.022;2023-12-28T08:44:32;96441.66;;;14.37;47.36
74334;BME280;62753;40.394;-80.022;2023-12-28T08:46:59;96443.35;;;14.48;46.93
74334;BME280;62753;40.394;-80.022;2023-12-28T08:49:23;96438.88;;;14.50;47.53
74334;BME280;62753;40.394;-80.022;2023-12-28T08:51:48;96440.75;;;14.10;46.83
74334;BME280;62753;40.394;-80.022;2023-12-28T08:54:15;96437.36;;;15.52;45.62
74334;BME280;62753;40.394;-80.022;2023-12-28T08:56:41;96434.41;;;15.35;45.24
74334;BME280;62753;40.394;-80.022;2023-12-28T08:59:05;96429.59;;;15.56;44.44
74334;BME280;62753;40.394;-80.022;2023-12-28T09:01:30;96428.83;;;15.47;44.31
74334;BME280;62753;40.394;-80.022;2023-12-28T09:03:56;96437.60;;;15.25;44.60
74334;BME280;62753;40.394;-80.022;2023-12-28T09:06:21;96434.62;;;15.04;45.37
74334;BME280;62753;40.394;-80.022;2023-12-28T09:08:50;96432.85;;;14.48;46.19
74334;BME280;62753;40.394;-80.022;2023-12-28T09:11:15;96432.30;;;14.93;46.49
74334;BME280;62753;40.394;-80.022;2023-12-28T09:13:37;96426.90;;;15.54;44.75
74334;BME280;62753;40.394;-80.022;2023-12-28T09:16:04;96426.91;;;15.34;44.83
74334;BME280;62753;40.394;-80.022;2023-12-28T09:18:27;96424.78;;;15.26;45.36
74334;BME280;62753;40.394;-80.022;2023-12-28T09:20:53;96421.36;;;14.68;46.16
74334;BME280;62753;40.394;-80.022;2023-12-28T09:23:18;96415.76;;;15.32;44.20
74334;BME280;62753;40.394;-80.022;2023-12-28T09:25:43;96416.04;;;15.53;43.83
74334;BME280;62753;40.394;-80.022;2023-12-28T09:28:09;96415.05;;;15.18;44.65
74334;BME280;62753;40.394;-80.022;2023-12-28T09:30:34;96409.88;;;15.23;43.99
74334;BME280;62753;40.394;-80.022;2023-12-28T09:33:01;96407.45;;;15.41;43.81
74334;BME280;62753;40.394;-80.022;2023-12-28T09:35:27;96404.10;;;16.14;42.41
74334;BME280;62753;40.394;-80.022;2023-12-28T09:37:53;96407.77;;;16.11;42.51
74334;BME280;62753;40.394;-80.022;2023-12-28T09:40:16;96405.63;;;15.72;42.90
74334;BME280;62753;40.394;-80.022;2023-12-28T09:42:48;96403.99;;;15.60;44.16
74334;BME280;62753;40.394;-80.022;2023-12-28T09:45:07;96403.09;;;15.13;44.31
74334;BME280;62753;40.394;-80.022;2023-12-28T09:47:32;96402.44;;;16.16;42.33
74334;BME280;62753;40.394;-80.022;2023-12-28T09:49:57;96398.78;;;16.03;42.58
74334;BME280;62753;40.394;-80.022;2023-12-28T09:52:22;96396.01;;;16.08;42.71
74334;BME280;62753;40.394;-80.022;2023-12-28T09:54:48;96391.90;;;15.78;42.19
74334;BME280;62753;40.394;-80.022;2023-12-28T09:57:13;96394.96;;;16.33;42.19
74334;BME280;62753;40.394;-80.022;2023-12-28T09:59:40;96394.88;;;15.49;43.44
74334;BME280;62753;40.394;-80.022;2023-12-28T10:02:04;96397.37;;;16.00;43.14
74334;BME280;62753;40.394;-80.022;2023-12-28T10:04:30;96398.40;;;15.99;43.02
74334;BME280;62753;40.394;-80.022;2023-12-28T10:06:57;96401.34;;;15.79;42.61
74334;BME280;62753;40.394;-80.022;2023-12-28T10:09:20;96400.00;;;15.74;42.93
74334;BME280;62753;40.394;-80.022;2023-12-28T10:11:49;96410.08;;;14.78;44.77
74334;BME280;62753;40.394;-80.022;2023-12-28T10:14:11;96408.75;;;14.63;45.10
74334;BME280;62753;40.394;-80.022;2023-12-28T10:16:40;96408.06;;;14.84;45.29
74334;BME280;62753;40.394;-80.022;2023-12-28T10:19:01;96405.96;;;15.61;44.17
74334;BME280;62753;40.394;-80.022;2023-12-28T10:21:27;96406.45;;;15.83;43.63
74334;BME280;62753;40.394;-80.022;2023-12-28T10:23:54;96409.41;;;15.20;43.86
74334;BME280;62753;40.394;-80.022;2023-12-28T10:26:20;96410.21;;;15.11;43.53
74334;BME280;62753;40.394;-80.022;2023-12-28T10:28:43;96416.51;;;15.04;43.96
74334;BME280;62753;40.394;-80.022;2023-12-28T10:31:09;96417.80;;;15.32;44.44
74334;BME280;62753;40.394;-80.022;2023-12-28T10:33:35;96420.05;;;14.74;44.83
74334;BME280;62753;40.394;-80.022;2023-12-28T10:35:59;96417.61;;;15.59;43.23
74334;BME280;62753;40.394;-80.022;2023-12-28T10:38:26;96423.94;;;15.39;43.66
74334;BME280;62753;40.394;-80.022;2023-12-28T10:40:50;96424.52;;;15.33;43.27
74334;BME280;62753;40.394;-80.022;2023-12-28T10:43:20;96426.19;;;14.97;43.81
74334;BME280;62753;40.394;-80.022;2023-12-28T10:45:41;96431.37;;;14.74;44.64
74334;BME280;62753;40.394;-80.022;2023-12-28T10:48:09;96432.41;;;14.31;44.75
74334;BME280;62753;40.394;-80.022;2023-12-28T10:50:37;96435.86;;;14.46;44.55
74334;BME280;62753;40.394;-80.022;2023-12-28T10:53:04;96443.83;;;14.43;44.26
74334;BME280;62753;40.394;-80.022;2023-12-28T10:55:30;96443.46;;;14.81;44.01
74334;BME280;62753;40.394;-80.022;2023-12-28T10:57:59;96440.17;;;13.69;45.93
74334;BME280;62753;40.394;-80.022;2023-12-28T11:00:21;96453.69;;;14.75;43.90
74334;BME280;62753;40.394;-80.022;2023-12-28T11:02:41;96457.09;;;15.57;42.83
74334;BME280;62753;40.394;-80.022;2023-12-28T11:05:04;96460.74;;;15.26;42.61
74334;BME280;62753;40.394;-80.022;2023-12-28T11:07:29;96463.89;;;15.15;42.44
74334;BME280;62753;40.394;-80.022;2023-12-28T11:09:56;96462.69;;;15.61;41.71
74334;BME280;62753;40.394;-80.022;2023-12-28T11:12:22;96462.28;;;15.93;41.88
74334;BME280;62753;40.394;-80.022;2023-12-28T11:14:47;96466.10;;;14.99;42.12
74334;BME280;62753;40.394;-80.022;2023-12-28T11:17:13;96470.09;;;14.85;42.96
74334;BME280;62753;40.394;-80.022;2023-12-28T11:19:36;96472.45;;;16.36;40.18
74334;BME280;62753;40.394;-80.022;2023-12-28T11:22:02;96473.14;;;15.34;40.96
74334;BME280;62753;40.394;-80.022;2023-12-28T11:24:28;96479.03;;;14.65;43.75
74334;BME280;62753;40.394;-80.022;2023-12-28T11:26:54;96478.98;;;15.28;41.93
74334;BME280;62753;40.394;-80.022;2023-12-28T11:29:19;96477.95;;;14.92;42.54
74334;BME280;62753;40.394;-80.022;2023-12-28T11:31:42;96481.73;;;15.02;42.97
74334;BME280;62753;40.394;-80.022;2023-12-28T11:34:07;96481.44;;;15.79;41.53
74334;BME280;62753;40.394;-80.022;2023-12-28T11:36:35;96481.02;;;15.30;41.74
74334;BME280;62753;40.394;-80.022;2023-12-28T11:39:02;96481.66;;;14.94;42.57
74334;BME280;62753;40.394;-80.022;2023-12-28T11:41:25;96478.93;;;14.73;43.16
74334;BME280;62753;40.394;-80.022;2023-12-28T11:43:53;96477.64;;;14.90;42.18
74334;BME280;62753;40.394;-80.022;2023-12-28T11:46:14;96476.67;;;13.91;44.19
74334;BME280;62753;40.394;-80.022;2023-12-28T11:48:41;96478.88;;;15.07;42.24
74334;BME280;62753;40.394;-80.022;2023-12-28T11:51:05;96477.31;;;14.91;42.36
74334;BME280;62753;40.394;-80.022;2023-12-28T11:53:31;96479.57;;;15.05;41.83
74334;BME280;62753;40.394;-80.022;2023-12-28T11:56:00;96483.47;;;15.55;41.13
74334;BME280;62753;40.394;-80.022;2023-12-28T11:58:21;96482.68;;;15.49;41.55
74334;BME280;62753;40.394;-80.022;2023-12-28T12:00:47;96482.49;;;15.28;41.63
74334;BME280;62753;40.394;-80.022;2023-12-28T12:03:13;96482.85;;;14.75;42.56
74334;BME280;62753;40.394;-80.022;2023-12-28T12:05:37;96480.30;;;14.19;43.81
74334;BME280;62753;40.394;-80.022;2023-12-28T12:08:03;96482.85;;;14.36;43.20
74334;BME280;62753;40.394;-80.022;2023-12-28T12:10:27;96487.24;;;14.98;42.05
74334;BME280;62753;40.394;-80.022;2023-12-28T12:12:53;96480.46;;;14.46;43.22
74334;BME280;62753;40.394;-80.022;2023-12-28T12:15:18;96480.65;;;14.46;43.11
74334;BME280;62753;40.394;-80.022;2023-12-28T12:17:43;96484.77;;;15.16;42.38
74334;BME280;62753;40.394;-80.022;2023-12-28T12:20:09;96487.88;;;14.79;42.20
74334;BME280;62753;40.394;-80.022;2023-12-28T12:22:34;96488.91;;;14.30;42.37
74334;BME280;62753;40.394;-80.022;2023-12-28T12:25:03;96486.35;;;14.90;42.50
74334;BME280;62753;40.394;-80.022;2023-12-28T12:27:26;96485.88;;;14.53;41.95
74334;BME280;62753;40.394;-80.022;2023-12-28T12:29:51;96485.67;;;14.78;41.56